Time;durP1;ratioP1;P1;durP2;ratioP2;P2;SDS_P1;SDS_P2;PMS_P1;PMS_P2;Temp;Humidity;BMP_temperature;BMP_pressure;BME280_temperature;BME280_humidity;BME280_pressure;Samples;Min_cycle;Max_cycle;Signal;HPM_P1;HPM_P2
2021/11/03 00:02:23;;;;;;;7.68;4.57;;;8.80;93.90;;;;;;5077873;28;20019;-73
2021/11/03 00:04:48;;;;;;;7.20;4.90;;;8.80;93.70;;;;;;5078204;28;20066;-72
2021/11/03 00:07:14;;;;;;;7.63;5.00;;;8.70;93.60;;;;;;5077830;28;20036;-72
2021/11/03 00:09:41;;;;;;;9.07;5.10;;;8.80;93.70;;;;;;5078130;28;20055;-72
2021/11/03 00:12:14;;;;;;;10.13;5.30;;;8.80;93.90;;;;;;5078017;28;21544;-72
2021/11/03 00:14:40;;;;;;;9.52;5.13;;;8.80;94.10;;;;;;5078233;28;20100;-72
2021/11/03 00:17:06;;;;;;;8.25;5.53;;;8.80;94.00;;;;;;5077897;28;20111;-72
2021/11/03 00:19:33;;;;;;;10.85;6.03;;;8.80;94.00;;;;;;5077815;28;20072;-72
2021/11/03 00:21:59;;;;;;;12.77;6.40;;;8.80;94.10;;;;;;5077075;28;20387;-72
2021/11/03 00:24:25;;;;;;;11.18;6.07;;;8.80;94.10;;;;;;5070071;28;20039;-72
2021/11/03 00:26:51;;;;;;;7.78;5.05;;;8.70;94.00;;;;;;5077904;28;20025;-72
2021/11/03 00:29:17;;;;;;;8.57;5.70;;;8.70;94.00;;;;;;5069397;28;20029;-72
2021/11/03 00:31:43;;;;;;;9.05;5.50;;;8.80;94.20;;;;;;5077712;28;20024;-72
2021/11/03 00:34:08;;;;;;;11.75;6.10;;;8.70;94.10;;;;;;5077455;28;20039;-72
2021/11/03 00:36:34;;;;;;;11.68;5.32;;;8.70;94.00;;;;;;5077349;28;20048;-72
2021/11/03 00:39:00;;;;;;;10.38;6.45;;;8.70;94.00;;;;;;5077509;28;20507;-72
2021/11/03 00:41:26;;;;;;;8.07;5.22;;;8.70;93.90;;;;;;5077814;28;20055;-72
2021/11/03 00:43:53;;;;;;;10.70;6.18;;;8.70;93.80;;;;;;5077484;28;20012;-72
2021/11/03 00:46:19;;;;;;;10.52;5.72;;;8.70;94.00;;;;;;5077522;28;20502;-72
2021/11/03 00:48:45;;;;;;;10.88;5.95;;;8.70;94.10;;;;;;5077408;28;20093;-72
2021/11/03 00:51:13;;;;;;;8.88;5.70;;;8.70;94.20;;;;;;5077313;28;20507;-72
2021/11/03 00:53:39;;;;;;;9.95;5.80;;;8.60;94.20;;;;;;5077226;28;20082;-72
2021/11/03 00:56:05;;;;;;;9.18;5.97;;;8.60;94.00;;;;;;5077422;28;20032;-72
2021/11/03 00:58:31;;;;;;;8.77;5.10;;;8.50;93.70;;;;;;5077289;28;20032;-72
2021/11/03 01:00:57;;;;;;;8.98;5.70;;;8.50;93.50;;;;;;5077397;28;20127;-72
2021/11/03 01:03:23;;;;;;;10.60;6.00;;;8.50;93.60;;;;;;5076876;28;20020;-72
2021/11/03 01:05:49;;;;;;;10.93;5.93;;;8.50;93.60;;;;;;5077104;28;20059;-72
2021/11/03 01:08:15;;;;;;;9.13;5.57;;;8.40;93.60;;;;;;5076734;28;20433;-72
2021/11/03 01:10:44;;;;;;;10.35;7.18;;;8.40;93.50;;;;;;5076545;28;20032;-72
2021/11/03 01:13:11;;;;;;;11.85;6.40;;;8.40;93.70;;;;;;5077350;28;20391;-72
2021/11/03 01:15:37;;;;;;;9.95;6.40;;;8.40;93.90;;;;;;5077062;28;20029;-72
2021/11/03 01:18:03;;;;;;;10.30;6.47;;;8.40;94.00;;;;;;5076972;28;20401;-72
2021/11/03 01:20:29;;;;;;;10.02;6.97;;;8.30;93.90;;;;;;5077097;28;20033;-72
2021/11/03 01:22:55;;;;;;;10.15;6.38;;;8.40;94.20;;;;;;5069070;28;20031;-72
2021/11/03 01:25:24;;;;;;;9.13;6.25;;;8.30;94.20;;;;;;5076979;28;20025;-72
2021/11/03 01:27:49;;;;;;;11.48;7.00;;;8.30;94.50;;;;;;5077044;28;20491;-72
2021/11/03 01:30:18;;;;;;;11.82;6.80;;;8.30;94.60;;;;;;5067131;28;20033;-72
2021/11/03 01:32:45;;;;;;;9.95;7.18;;;8.30;94.80;;;;;;5076915;28;20032;-72
2021/11/03 01:35:11;;;;;;;11.02;6.53;;;8.30;94.90;;;;;;5076844;28;20024;-72
2021/11/03 01:37:37;;;;;;;9.00;5.88;;;8.30;95.00;;;;;;5076743;28;20029;-72
2021/11/03 01:40:06;;;;;;;8.95;5.72;;;8.30;94.90;;;;;;5076728;28;20035;-72
2021/11/03 01:42:34;;;;;;;11.27;7.10;;;8.20;94.90;;;;;;5076829;28;20025;-72
2021/11/03 01:45:00;;;;;;;10.60;5.90;;;8.30;95.20;;;;;;5075605;28;20108;-72
2021/11/03 01:47:43;;;;;;;11.27;6.65;;;8.20;95.20;;;;;;5076869;28;20364;-72
2021/11/03 01:50:20;;;;;;;11.80;6.47;;;8.20;94.90;;;;;;5069375;28;20487;-72
2021/11/03 01:52:49;;;;;;;9.77;6.13;;;8.20;95.10;;;;;;5076596;28;20016;-72
2021/11/03 01:55:16;;;;;;;8.70;5.53;;;8.20;95.20;;;;;;5076655;28;20061;-72
2021/11/03 01:57:48;;;;;;;10.13;5.70;;;8.10;95.10;;;;;;5076777;28;20118;-72
2021/11/03 02:00:21;;;;;;;9.63;6.40;;;8.20;95.10;;;;;;5076708;28;20052;-72
2021/11/03 02:02:49;;;;;;;9.43;5.60;;;8.10;95.20;;;;;;5076458;28;20016;-72
2021/11/03 02:05:17;;;;;;;8.82;6.03;;;8.10;95.50;;;;;;5076796;28;20043;-72
2021/11/03 02:07:44;;;;;;;10.52;5.53;;;8.10;95.50;;;;;;5076368;28;20479;-72
2021/11/03 02:10:12;;;;;;;9.20;5.72;;;8.10;95.50;;;;;;5076653;28;20020;-72
2021/11/03 02:12:38;;;;;;;12.40;6.53;;;8.00;95.30;;;;;;5081505;28;20122;-72
2021/11/03 02:15:05;;;;;;;9.20;5.75;;;8.10;95.40;;;;;;5076570;28;20070;-72
2021/11/03 02:17:31;;;;;;;8.07;5.10;;;8.00;95.50;;;;;;5076628;28;20100;-72
2021/11/03 02:20:00;;;;;;;8.48;5.13;;;8.00;95.50;;;;;;5075475;28;20106;-72
2021/11/03 02:22:46;;;;;;;8.50;5.00;;;8.00;95.50;;;;;;5076767;28;20017;-72
2021/11/03 02:25:16;;;;;;;9.32;5.80;;;8.10;95.70;;;;;;5079906;28;20028;-72
2021/11/03 02:27:48;;;;;;;8.90;4.93;;;8.00;95.80;;;;;;5080225;28;20084;-72
2021/11/03 02:30:17;;;;;;;9.63;6.85;;;8.00;95.70;;;;;;5071380;28;20482;-72
2021/11/03 02:32:43;;;;;;;9.05;5.32;;;8.00;95.70;;;;;;5079847;28;20368;-72
2021/11/03 02:35:11;;;;;;;8.57;5.25;;;8.00;95.70;;;;;;5079873;28;20112;-72
2021/11/03 02:37:40;;;;;;;6.85;4.75;;;8.00;95.70;;;;;;5073567;28;20116;-72
2021/11/03 02:40:37;;;;;;;7.28;5.10;;;8.00;95.70;;;;;;5078371;28;20029;-72
2021/11/03 02:43:12;;;;;;;8.52;4.35;;;8.00;95.90;;;;;;5080016;28;20025;-72
2021/11/03 02:45:48;;;;;;;7.85;4.82;;;8.00;95.90;;;;;;5079970;28;20025;-72
2021/11/03 02:48:15;;;;;;;9.93;5.68;;;8.00;95.80;;;;;;5080101;28;20040;-72
2021/11/03 02:50:57;;;;;;;12.13;4.45;;;8.00;95.70;;;;;;5080021;28;20475;-72
2021/11/03 02:53:23;;;;;;;6.70;3.65;;;8.00;95.70;;;;;;5079803;28;20104;-72
2021/11/03 02:55:49;;;;;;;7.05;3.85;;;7.90;95.30;;;;;;5079669;28;20036;-72
2021/11/03 02:58:15;;;;;;;7.45;4.18;;;7.90;94.90;;;;;;5079656;28;20028;-72
2021/11/03 03:00:41;;;;;;;7.25;4.00;;;7.90;94.70;;;;;;5079674;28;20093;-72
2021/11/03 03:03:06;;;;;;;6.78;4.25;;;7.90;94.80;;;;;;5079549;28;20047;-72
2021/11/03 03:05:32;;;;;;;7.72;4.80;;;7.90;95.00;;;;;;5079611;28;20013;-72
2021/11/03 03:07:58;;;;;;;8.07;4.57;;;7.90;95.30;;;;;;5079362;28;20028;-72
2021/11/03 03:10:24;;;;;;;7.25;4.45;;;7.90;95.20;;;;;;5079435;28;20040;-72
2021/11/03 03:12:51;;;;;;;6.05;4.32;;;7.90;95.30;;;;;;5079578;28;20410;-72
2021/11/03 03:15:17;;;;;;;7.28;4.68;;;7.80;95.20;;;;;;5079440;28;20091;-72
2021/11/03 03:17:43;;;;;;;7.00;4.55;;;7.80;95.10;;;;;;5079554;28;20020;-72
2021/11/03 03:20:09;;;;;;;6.32;3.80;;;7.80;95.20;;;;;;5079192;28;20017;-72
2021/11/03 03:22:35;;;;;;;6.20;3.40;;;7.80;95.20;;;;;;5079208;28;20028;-72
2021/11/03 03:25:01;;;;;;;6.05;3.70;;;7.80;95.20;;;;;;5079076;28;20049;-72
2021/11/03 03:27:27;;;;;;;5.93;3.78;;;7.70;94.90;;;;;;5079316;28;20546;-72
2021/11/03 03:29:53;;;;;;;6.70;4.07;;;7.60;94.60;;;;;;5066306;28;20027;-72
2021/11/03 03:32:20;;;;;;;5.88;3.20;;;7.60;94.50;;;;;;5078075;28;20025;-72
2021/11/03 03:34:46;;;;;;;8.35;3.90;;;7.60;94.30;;;;;;5079206;28;20112;-72
2021/11/03 03:37:12;;;;;;;7.63;3.88;;;7.60;94.50;;;;;;5077223;28;20072;-72
2021/11/03 03:39:38;;;;;;;6.00;3.70;;;7.60;94.60;;;;;;5078886;28;20031;-72
2021/11/03 03:42:08;;;;;;;5.53;3.50;;;7.50;94.60;;;;;;5078928;28;20030;-72
2021/11/03 03:44:35;;;;;;;5.10;3.30;;;7.50;94.60;;;;;;5078802;28;20130;-72
2021/11/03 03:47:01;;;;;;;6.00;3.95;;;7.50;95.00;;;;;;5078946;28;20017;-72
2021/11/03 03:49:26;;;;;;;7.13;3.97;;;7.50;95.20;;;;;;5078716;28;20391;-72
2021/11/03 03:51:53;;;;;;;5.70;3.80;;;7.50;95.30;;;;;;5078622;28;20060;-72
2021/11/03 03:54:20;;;;;;;6.68;3.55;;;7.40;95.00;;;;;;5078465;28;20024;-72
2021/11/03 03:56:45;;;;;;;6.88;3.90;;;7.40;94.90;;;;;;5078724;28;20112;-72
2021/11/03 03:59:11;;;;;;;5.95;3.55;;;7.30;94.60;;;;;;5078417;28;20059;-72
2021/11/03 04:01:37;;;;;;;5.80;3.13;;;7.30;94.30;;;;;;5078535;28;20066;-72
2021/11/03 04:04:06;;;;;;;8.20;3.65;;;7.30;94.30;;;;;;5078167;28;20023;-72
2021/11/03 04:06:31;;;;;;;6.25;3.05;;;7.30;94.50;;;;;;5078207;28;20060;-72
2021/11/03 04:08:57;;;;;;;5.57;3.20;;;7.20;94.50;;;;;;5078205;28;20046;-72
2021/11/03 04:11:23;;;;;;;5.30;2.83;;;7.20;94.40;;;;;;5078494;28;20410;-72
2021/11/03 04:13:49;;;;;;;5.95;2.78;;;7.20;94.20;;;;;;5078153;28;20499;-72
2021/11/03 04:16:15;;;;;;;5.35;3.08;;;7.10;93.90;;;;;;5078303;28;20024;-72
2021/11/03 04:18:40;;;;;;;7.22;3.30;;;7.10;93.70;;;;;;5077991;28;20029;-72
2021/11/03 04:21:07;;;;;;;5.40;3.08;;;7.10;93.80;;;;;;5078015;28;20024;-72
2021/11/03 04:23:33;;;;;;;7.07;3.75;;;7.10;94.10;;;;;;5077993;28;20066;-72
2021/11/03 04:25:59;;;;;;;5.65;3.38;;;7.10;94.50;;;;;;5077992;28;20052;-72
2021/11/03 04:28:25;;;;;;;8.10;3.60;;;7.10;94.70;;;;;;5076253;28;20050;-72
2021/11/03 04:30:51;;;;;;;6.88;2.92;;;7.10;94.90;;;;;;5067013;28;20029;-72
2021/11/03 04:33:19;;;;;;;5.28;2.88;;;7.00;94.60;;;;;;5077978;28;20032;-72
2021/11/03 04:35:47;;;;;;;5.15;2.70;;;7.00;94.30;;;;;;5077665;28;20053;-72
2021/11/03 04:38:13;;;;;;;4.22;2.28;;;7.00;94.30;;;;;;5077686;28;20025;-72
2021/11/03 04:40:39;;;;;;;5.72;2.97;;;7.00;94.50;;;;;;5077895;28;20503;-72
2021/11/03 04:43:05;;;;;;;4.30;2.33;;;7.00;94.50;;;;;;5077528;28;20028;-72
2021/11/03 04:45:31;;;;;;;5.60;2.28;;;7.00;94.30;;;;;;5073966;28;20032;-72
2021/11/03 04:47:57;;;;;;;4.30;2.25;;;7.00;94.30;;;;;;5077534;28;20031;-72
2021/11/03 04:50:29;;;;;;;5.05;2.35;;;7.00;94.10;;;;;;5077315;28;20040;-72
2021/11/03 04:52:56;;;;;;;3.28;1.95;;;7.00;93.90;;;;;;5077244;28;20507;-72
2021/11/03 04:55:22;;;;;;;5.32;2.20;;;7.10;94.30;;;;;;5077463;28;20040;-72
2021/11/03 04:57:48;;;;;;;5.85;2.50;;;7.10;94.80;;;;;;5077386;28;20028;-72
2021/11/03 05:00:20;;;;;;;8.38;2.50;;;7.20;95.50;;;;;;5077324;28;20028;-72
2021/11/03 05:02:46;;;;;;;5.55;2.45;;;7.30;96.00;;;;;;5077118;28;20028;-72
2021/11/03 05:05:12;;;;;;;5.47;2.30;;;7.40;96.10;;;;;;5077582;28;20024;-72
2021/11/03 05:07:38;;;;;;;5.95;2.17;;;7.40;96.20;;;;;;5075682;28;20055;-72
2021/11/03 05:10:04;;;;;;;6.57;2.10;;;7.40;96.10;;;;;;5077188;28;20040;-72
2021/11/03 05:12:30;;;;;;;4.65;2.10;;;7.50;96.20;;;;;;5077187;28;20494;-72
2021/11/03 05:14:56;;;;;;;7.97;2.38;;;7.40;96.10;;;;;;5077343;28;20028;-72
2021/11/03 05:17:21;;;;;;;5.57;2.20;;;7.40;96.00;;;;;;5077162;28;20024;-72
2021/11/03 05:19:47;;;;;;;4.35;2.00;;;7.40;96.00;;;;;;5077146;28;20029;-72
2021/11/03 05:22:14;;;;;;;11.70;2.53;;;7.50;96.00;;;;;;5076664;28;20020;-72
2021/11/03 05:24:40;;;;;;;5.40;1.63;;;7.50;96.40;;;;;;5077176;28;20044;-72
2021/11/03 05:27:06;;;;;;;4.28;1.55;;;7.60;96.90;;;;;;5077014;28;20051;-72
2021/11/03 05:29:32;;;;;;;4.93;2.28;;;7.70;97.20;;;;;;5066512;28;20029;-72
2021/11/03 05:31:58;;;;;;;5.28;1.55;;;7.70;97.30;;;;;;5090511;28;20055;-72
2021/11/03 05:34:24;;;;;;;4.95;1.70;;;7.70;97.20;;;;;;5077039;28;20025;-72
2021/11/03 05:36:51;;;;;;;5.88;1.30;;;7.70;97.10;;;;;;5076683;28;20424;-71
2021/11/03 05:39:17;;;;;;;5.10;1.35;;;7.60;97.00;;;;;;5076920;28;20024;-72
2021/11/03 05:41:44;;;;;;;6.03;1.77;;;7.60;96.70;;;;;;5076887;28;20098;-72
2021/11/03 05:44:13;;;;;;;5.90;1.48;;;7.60;96.70;;;;;;5076850;28;20127;-72
2021/11/03 05:46:49;;;;;;;7.50;1.85;;;7.60;96.80;;;;;;5075573;28;20096;-72
2021/11/03 05:49:17;;;;;;;5.60;2.17;;;7.60;96.90;;;;;;5076906;28;20033;-72
2021/11/03 05:51:45;;;;;;;3.00;1.45;;;7.60;97.00;;;;;;5076903;28;20433;-72
2021/11/03 05:54:11;;;;;;;6.20;2.00;;;7.60;96.90;;;;;;5076557;28;20074;-72
2021/11/03 05:56:37;;;;;;;3.10;1.20;;;7.50;96.90;;;;;;5080042;28;20028;-71
2021/11/03 05:59:04;;;;;;;4.47;2.00;;;7.50;96.90;;;;;;5080636;28;20025;-71
2021/11/03 06:01:31;;;;;;;3.58;1.60;;;7.50;97.00;;;;;;5080772;28;20433;-72
2021/11/03 06:03:57;;;;;;;3.50;1.90;;;7.50;96.90;;;;;;5080377;28;20040;-71
2021/11/03 06:06:23;;;;;;;4.47;1.65;;;7.50;96.90;;;;;;5080387;28;20021;-72
2021/11/03 06:08:50;;;;;;;4.38;1.63;;;7.60;97.10;;;;;;5080469;28;20091;-72
2021/11/03 06:11:19;;;;;;;5.78;2.45;;;7.50;97.00;;;;;;5080817;28;20048;-72
2021/11/03 06:13:45;;;;;;;3.97;1.98;;;7.50;96.90;;;;;;5079924;28;20032;-72
2021/11/03 06:16:11;;;;;;;3.88;1.65;;;7.50;96.90;;;;;;5080722;28;20391;-72
2021/11/03 06:18:37;;;;;;;5.40;1.90;;;7.50;96.70;;;;;;5080294;28;20105;-72
2021/11/03 06:21:03;;;;;;;3.83;1.85;;;7.50;96.60;;;;;;5080427;28;20052;-72
2021/11/03 06:23:29;;;;;;;3.80;1.77;;;7.40;96.20;;;;;;5079053;28;20032;-72
2021/11/03 06:25:55;;;;;;;3.53;1.80;;;7.40;96.00;;;;;;5080302;28;20024;-72
2021/11/03 06:28:21;;;;;;;3.78;1.70;;;7.40;96.00;;;;;;5079080;28;20503;-72
2021/11/03 06:30:47;;;;;;;3.55;1.70;;;7.40;96.00;;;;;;5068775;28;20107;-72
2021/11/03 06:33:14;;;;;;;4.30;2.10;;;7.40;96.00;;;;;;5080047;28;20081;-72
2021/11/03 06:35:41;;;;;;;3.65;1.90;;;7.40;96.10;;;;;;5080181;28;20403;-72
2021/11/03 06:38:09;;;;;;;5.80;2.25;;;7.40;96.00;;;;;;5079820;28;20025;-72
2021/11/03 06:40:36;;;;;;;4.93;2.15;;;7.40;96.00;;;;;;5079921;28;20024;-72
2021/11/03 06:43:03;;;;;;;4.55;2.17;;;7.30;96.00;;;;;;5079945;28;20020;-72
2021/11/03 06:45:29;;;;;;;4.05;1.48;;;7.30;96.00;;;;;;5080208;28;20048;-72
2021/11/03 06:47:56;;;;;;;5.90;2.58;;;7.30;95.80;;;;;;5079841;28;20112;-72
2021/11/03 06:50:29;;;;;;;3.72;1.77;;;7.20;95.70;;;;;;5080068;28;20032;-72
2021/11/03 06:52:56;;;;;;;3.40;1.90;;;7.20;95.60;;;;;;5079425;28;20027;-72
2021/11/03 06:55:22;;;;;;;4.95;2.00;;;7.20;95.70;;;;;;5079896;28;20063;-72
2021/11/03 06:57:49;;;;;;;3.50;1.67;;;7.20;95.80;;;;;;5079706;28;20016;-72
2021/11/03 07:00:22;;;;;;;11.10;1.90;;;7.10;95.80;;;;;;5079894;28;20033;-71
2021/11/03 07:02:48;;;;;;;3.10;1.65;;;7.00;95.60;;;;;;5079263;28;20387;-72
2021/11/03 07:05:14;;;;;;;5.90;1.80;;;7.00;95.50;;;;;;5079779;28;20032;-72
2021/11/03 07:07:40;;;;;;;4.47;1.80;;;7.00;95.30;;;;;;5066123;28;20487;-72
2021/11/03 07:10:08;;;;;;;3.53;1.80;;;7.00;95.10;;;;;;5079315;28;20035;-72
2021/11/03 07:12:34;;;;;;;3.58;1.92;;;6.90;94.80;;;;;;5079698;28;20059;-72
2021/11/03 07:15:00;;;;;;;5.28;2.28;;;6.90;94.60;;;;;;5079407;28;20476;-72
2021/11/03 07:17:26;;;;;;;5.50;2.70;;;6.90;94.60;;;;;;5079644;28;20024;-72
2021/11/03 07:19:54;;;;;;;6.63;2.30;;;6.90;94.90;;;;;;5079218;28;20024;-72
2021/11/03 07:22:20;;;;;;;4.70;2.45;;;6.90;95.20;;;;;;5079308;28;20036;-72
2021/11/03 07:24:46;;;;;;;5.00;2.22;;;6.90;95.50;;;;;;5079069;28;20475;-72
2021/11/03 07:27:11;;;;;;;3.67;1.73;;;6.90;95.50;;;;;;5079436;28;20024;-72
2021/11/03 07:29:40;;;;;;;3.15;1.63;;;6.80;95.20;;;;;;5067549;28;20036;-72
2021/11/03 07:32:06;;;;;;;3.83;2.22;;;6.80;94.90;;;;;;5077991;28;20039;-72
2021/11/03 07:34:32;;;;;;;4.95;2.20;;;6.80;94.70;;;;;;5079130;28;20032;-71
2021/11/03 07:36:58;;;;;;;4.00;2.30;;;6.80;94.60;;;;;;5078505;28;20036;-72
2021/11/03 07:39:24;;;;;;;6.03;2.70;;;6.90;94.60;;;;;;5078866;28;20099;-71
2021/11/03 07:41:51;;;;;;;5.75;3.67;;;7.00;95.00;;;;;;5078845;28;20044;-71
2021/11/03 07:44:17;;;;;;;6.63;3.15;;;7.10;95.20;;;;;;5077539;28;20021;-72
2021/11/03 07:46:43;;;;;;;5.38;3.25;;;7.30;95.30;;;;;;5065851;28;20028;-71
2021/11/03 07:49:09;;;;;;;5.68;3.08;;;7.40;95.40;;;;;;5078691;28;20134;-72
2021/11/03 07:51:35;;;;;;;5.53;2.80;;;7.50;95.50;;;;;;5078638;28;20158;-72
2021/11/03 07:54:01;;;;;;;6.97;2.50;;;7.70;95.40;;;;;;5078436;28;20056;-72
2021/11/03 07:56:31;;;;;;;5.55;2.35;;;7.80;95.30;;;;;;5078893;28;20027;-72
2021/11/03 07:58:56;;;;;;;4.53;2.10;;;7.80;95.00;;;;;;5078413;28;20088;-71
2021/11/03 08:01:23;;;;;;;3.97;2.15;;;7.80;94.80;;;;;;5073922;28;20499;-71
2021/11/03 08:03:50;;;;;;;4.55;2.22;;;7.80;94.60;;;;;;5076037;28;20017;-72
2021/11/03 08:06:16;;;;;;;4.60;2.20;;;7.80;94.30;;;;;;5078272;28;20021;-71
2021/11/03 08:08:46;;;;;;;5.95;2.60;;;7.80;94.20;;;;;;5078252;28;20046;-72
2021/11/03 08:11:14;;;;;;;4.57;2.35;;;7.80;94.10;;;;;;5076999;28;20074;-72
2021/11/03 08:13:40;;;;;;;5.10;2.53;;;7.70;93.90;;;;;;5078215;28;20020;-72
2021/11/03 08:16:08;;;;;;;4.70;2.50;;;7.70;93.90;;;;;;5078366;28;20020;-71
2021/11/03 08:18:39;;;;;;;5.28;2.63;;;7.70;93.80;;;;;;5077577;28;20025;-72
2021/11/03 08:21:06;;;;;;;5.97;3.20;;;7.70;93.80;;;;;;5077921;28;20012;-72
2021/11/03 08:23:32;;;;;;;7.85;3.38;;;7.70;93.70;;;;;;5077992;28;20040;-71
2021/11/03 08:25:58;;;;;;;9.45;4.20;;;7.70;93.60;;;;;;5078095;28;20418;-72
2021/11/03 08:28:24;;;;;;;8.95;4.75;;;7.60;93.60;;;;;;5076463;28;20029;-71
2021/11/03 08:30:53;;;;;;;7.78;4.00;;;7.70;93.80;;;;;;5066626;28;20103;-72
2021/11/03 08:33:24;;;;;;;9.30;4.55;;;7.60;93.90;;;;;;5077806;28;20081;-72
2021/11/03 08:35:52;;;;;;;7.57;4.60;;;7.70;94.10;;;;;;5077602;28;20097;-72
2021/11/03 08:38:21;;;;;;;6.60;3.92;;;7.70;94.00;;;;;;5077895;28;20080;-72
2021/11/03 08:40:49;;;;;;;7.55;3.72;;;7.70;93.80;;;;;;5077954;28;20024;-71
2021/11/03 08:43:23;;;;;;;6.57;3.70;;;7.70;93.60;;;;;;5077630;28;20058;-71
2021/11/03 08:45:50;;;;;;;10.02;5.57;;;7.70;93.50;;;;;;5076408;28;20119;-71
2021/11/03 08:48:17;;;;;;;13.35;6.28;;;7.70;93.70;;;;;;5077587;28;20023;-72
2021/11/03 08:50:43;;;;;;;12.38;6.60;;;7.70;93.90;;;;;;5077393;28;20070;-72
2021/11/03 08:53:10;;;;;;;10.20;5.30;;;7.80;94.00;;;;;;5077433;28;20024;-72
2021/11/03 08:55:37;;;;;;;7.05;4.45;;;7.80;94.20;;;;;;5076206;28;20024;-72
2021/11/03 08:58:05;;;;;;;7.53;4.53;;;7.90;94.60;;;;;;5077444;28;20028;-71
2021/11/03 09:00:35;;;;;;;16.02;8.05;;;7.90;94.50;;;;;;5071371;28;20036;-71
2021/11/03 09:03:02;;;;;;;20.58;8.13;;;8.00;94.80;;;;;;5077255;28;20111;-71
2021/11/03 09:05:30;;;;;;;26.63;11.50;;;8.20;95.10;;;;;;5077612;28;20017;-71
2021/11/03 09:07:59;;;;;;;21.35;8.50;;;8.50;95.50;;;;;;5077329;28;20028;-72
2021/11/03 09:10:26;;;;;;;8.38;4.45;;;8.80;95.60;;;;;;5077333;28;20016;-71
2021/11/03 09:12:53;;;;;;;5.85;3.15;;;9.10;96.00;;;;;;5077527;28;20116;-72
2021/11/03 09:15:20;;;;;;;5.30;2.88;;;9.30;95.40;;;;;;5077391;28;20052;-72
2021/11/03 09:17:47;;;;;;;8.02;3.05;;;9.50;95.20;;;;;;5077520;28;20127;-72
2021/11/03 09:20:14;;;;;;;6.75;3.40;;;9.60;95.10;;;;;;5077224;28;20029;-71
2021/11/03 09:22:41;;;;;;;7.10;3.40;;;9.60;94.90;;;;;;5075768;28;20032;-72
2021/11/03 09:25:10;;;;;;;7.78;3.95;;;9.70;94.90;;;;;;5077110;28;20096;-72
2021/11/03 09:27:37;;;;;;;7.53;3.97;;;9.70;94.80;;;;;;5077281;28;20028;-72
2021/11/03 09:30:04;;;;;;;7.57;4.03;;;9.70;94.60;;;;;;5064779;28;20029;-72
2021/11/03 09:32:31;;;;;;;7.78;3.90;;;9.70;94.40;;;;;;5081334;28;20073;-72
2021/11/03 09:34:58;;;;;;;7.10;4.13;;;9.60;94.30;;;;;;5081330;28;20122;-72
2021/11/03 09:37:25;;;;;;;7.93;3.97;;;9.60;94.20;;;;;;5081002;28;20052;-72
2021/11/03 09:39:52;;;;;;;7.55;3.22;;;9.70;94.60;;;;;;5080957;28;20497;-72
2021/11/03 09:42:21;;;;;;;6.13;2.95;;;10.00;94.90;;;;;;5081186;28;20021;-72
2021/11/03 09:44:50;;;;;;;5.30;2.90;;;10.50;95.10;;;;;;5081193;28;20017;-72
2021/11/03 09:47:22;;;;;;;4.28;2.65;;;11.30;94.30;;;;;;5081171;28;20020;-72
2021/11/03 09:50:11;;;;;;;5.00;2.70;;;11.90;93.90;;;;;;5081033;28;20024;-72
2021/11/03 09:52:50;;;;;;;7.18;2.67;;;12.70;92.90;;;;;;5080694;28;20056;-72
2021/11/03 09:55:23;;;;;;;5.60;2.80;;;13.60;91.50;;;;;;5081161;28;20025;-72
2021/11/03 09:58:02;;;;;;;3.22;1.80;;;14.40;89.70;;;;;;5080848;28;20039;-72
2021/11/03 10:00:55;;;;;;;3.95;2.08;;;14.90;86.90;;;;;;5080778;28;20077;-72
2021/11/03 10:03:33;;;;;;;7.60;2.20;;;15.50;85.60;;;;;;5074876;28;20021;-72
2021/11/03 10:06:07;;;;;;;4.13;1.85;;;16.00;85.20;;;;;;5079115;28;20021;-72
2021/11/03 10:08:53;;;;;;;2.90;1.30;;;16.50;84.30;;;;;;5079412;28;20111;-72
2021/11/03 10:11:26;;;;;;;3.53;1.40;;;17.00;82.30;;;;;;5085489;28;20028;-72
2021/11/03 10:13:58;;;;;;;4.88;1.95;;;17.30;83.20;;;;;;5080580;28;20037;-72
2021/11/03 10:16:32;;;;;;;8.00;2.50;;;17.60;82.70;;;;;;5080634;28;20115;-72
2021/11/03 10:19:13;;;;;;;3.83;1.80;;;18.00;82.00;;;;;;5079023;28;20068;-72
2021/11/03 10:21:41;;;;;;;4.18;1.52;;;18.40;80.60;;;;;;5080086;28;20075;-72
2021/11/03 10:24:07;;;;;;;4.95;1.73;;;18.70;79.70;;;;;;5080398;28;20442;-72
2021/11/03 10:26:46;;;;;;;4.65;2.13;;;19.00;78.00;;;;;;5080268;28;20024;-72
2021/11/03 10:29:12;;;;;;;6.65;2.22;;;19.30;77.70;;;;;;5072303;28;20029;-72
2021/11/03 10:31:49;;;;;;;3.50;1.55;;;19.50;77.80;;;;;;5075487;28;20031;-72
2021/11/03 10:34:27;;;;;;;5.15;1.40;;;20.00;73.50;;;;;;5070641;28;20060;-72
2021/11/03 10:37:24;;;;;;;4.55;1.10;;;20.20;72.30;;;;;;5079634;28;20076;-72
2021/11/03 10:40:01;;;;;;;3.55;1.40;;;20.40;71.80;;;;;;5079311;28;20040;-72
2021/11/03 10:42:28;;;;;;;7.90;1.80;;;20.30;73.20;;;;;;5079768;28;20017;-72
2021/11/03 10:45:37;;;;;;;4.10;1.60;;;20.50;73.70;;;;;;5079857;28;20458;-72
2021/11/03 10:48:24;;;;;;;4.63;1.67;;;20.70;71.40;;;;;;5077571;28;20029;-72
2021/11/03 10:50:56;;;;;;;4.38;1.60;;;20.90;72.10;;;;;;5079527;28;20032;-72
2021/11/03 10:53:23;;;;;;;4.55;1.60;;;21.10;71.10;;;;;;5077116;28;20028;-72
2021/11/03 10:56:38;;;;;;;4.70;1.75;;;21.20;71.00;;;;;;5077261;28;20418;-72
2021/11/03 10:59:26;;;;;;;4.75;1.85;;;21.30;70.50;;;;;;5067474;28;20052;-72
2021/11/03 11:01:54;;;;;;;4.90;1.70;;;21.50;70.10;;;;;;5079288;28;20052;-72
2021/11/03 11:04:34;;;;;;;6.57;2.67;;;21.70;67.80;;;;;;5079694;28;20055;-72
2021/11/03 11:07:17;;;;;;;7.20;3.08;;;21.80;68.60;;;;;;5078270;28;20028;-72
2021/11/03 11:09:48;;;;;;;7.18;2.50;;;21.90;67.40;;;;;;5079576;28;20078;-72
2021/11/03 11:12:14;;;;;;;4.63;2.30;;;22.00;66.30;;;;;;5079455;28;20471;-72
2021/11/03 11:14:40;;;;;;;5.72;1.90;;;22.10;65.60;;;;;;5078203;28;20064;-72
2021/11/03 11:17:32;;;;;;;5.32;2.13;;;22.20;64.60;;;;;;5079417;28;20028;-73
2021/11/03 11:20:10;;;;;;;4.72;1.35;;;22.10;63.80;;;;;;5079284;28;20422;-72
2021/11/03 11:23:19;;;;;;;3.72;1.10;;;22.20;63.80;;;;;;5079293;28;20024;-72
2021/11/03 11:26:00;;;;;;;4.57;1.60;;;22.20;65.30;;;;;;5048845;28;20085;-73
2021/11/03 11:28:45;;;;;;;4.63;1.65;;;22.10;64.50;;;;;;5077479;28;20091;-73
2021/11/03 11:31:35;;;;;;;3.33;0.93;;;22.10;63.70;;;;;;5070915;28;20025;-73
2021/11/03 11:34:08;;;;;;;5.28;2.40;;;22.00;65.50;;;;;;5078686;28;20048;-73
2021/11/03 11:36:46;;;;;;;6.80;2.05;;;22.00;64.80;;;;;;5078732;28;20047;-73
2021/11/03 11:39:26;;;;;;;5.63;2.83;;;21.90;63.60;;;;;;5079072;28;20028;-73
2021/11/03 11:41:57;;;;;;;6.15;2.60;;;21.80;63.60;;;;;;5078820;28;20488;-73
2021/11/03 11:44:30;;;;;;;6.30;3.35;;;21.80;64.10;;;;;;5078980;28;20483;-73
2021/11/03 11:47:03;;;;;;;4.90;1.38;;;21.80;60.80;;;;;;5066323;28;20057;-72
2021/11/03 11:49:35;;;;;;;2.97;1.10;;;21.70;59.10;;;;;;5078872;28;20024;-73
2021/11/03 11:52:21;;;;;;;;;;;21.60;59.80;;;;;;5078840;28;20077;-72
2021/11/03 11:55:11;;;;;;;5.70;2.80;;;21.60;61.80;;;;;;5077845;28;19904;-72
2021/11/03 11:58:01;;;;;;;7.45;2.10;;;21.50;62.00;;;;;;5078469;28;20066;-73
2021/11/03 12:00:27;;;;;;;8.57;2.42;;;21.40;61.80;;;;;;5078339;28;20043;-73
2021/11/03 12:02:57;;;;;;;4.57;2.00;;;21.20;62.60;;;;;;5078160;28;20027;-73
2021/11/03 12:05:45;;;;;;;4.85;2.00;;;21.00;62.90;;;;;;5078640;28;20040;-73
2021/11/03 12:08:13;;;;;;;3.17;1.55;;;20.60;63.00;;;;;;5067681;28;20089;-73
2021/11/03 12:11:06;;;;;;;5.30;1.45;;;20.40;64.40;;;;;;5078401;28;20395;-73
2021/11/03 12:13:44;;;;;;;5.20;1.50;;;20.40;65.40;;;;;;5078151;28;20028;-73
2021/11/03 12:16:49;;;;;;;3.78;1.02;;;20.40;67.20;;;;;;5078276;28;20017;-73
2021/11/03 12:19:37;;;;;;;5.75;1.70;;;20.60;66.80;;;;;;5065525;28;20166;-73
2021/11/03 12:22:28;;;;;;;5.72;1.05;;;20.70;65.50;;;;;;5077622;28;20028;-73
2021/11/03 12:24:56;;;;;;;3.05;1.20;;;20.90;65.90;;;;;;5071983;28;20158;-74
2021/11/03 12:27:24;;;;;;;2.95;0.90;;;20.90;64.10;;;;;;5078074;28;20021;-73
2021/11/03 12:30:08;;;;;;;3.25;1.00;;;20.60;61.10;;;;;;5064705;28;20029;-73
2021/11/03 12:32:43;;;;;;;3.03;1.25;;;20.30;61.20;;;;;;5076528;28;20504;-74
2021/11/03 12:35:18;;;;;;;3.28;0.85;;;19.80;61.00;;;;;;5077596;28;20047;-74
2021/11/03 12:37:46;;;;;;;6.07;2.75;;;19.40;61.50;;;;;;5077524;28;20025;-73
2021/11/03 12:40:26;;;;;;;6.50;2.45;;;19.00;62.40;;;;;;5076050;28;20028;-73
2021/11/03 12:43:24;;;;;;;5.50;2.50;;;18.30;61.00;;;;;;5077421;28;20025;-73
2021/11/03 12:46:07;;;;;;;7.35;2.17;;;17.80;62.50;;;;;;5077524;28;20392;-73
2021/11/03 12:48:43;;;;;;;6.53;1.95;;;17.30;63.60;;;;;;5065807;28;20031;-73
2021/11/03 12:51:28;;;;;;;6.35;2.40;;;16.90;64.60;;;;;;5077163;28;20021;-73
2021/11/03 12:54:01;;;;;;;5.75;2.30;;;16.60;64.40;;;;;;5077672;28;20020;-73
2021/11/03 12:56:36;;;;;;;6.68;2.08;;;16.30;65.70;;;;;;5077516;28;20108;-73
2021/11/03 12:59:05;;;;;;;9.52;3.88;;;16.00;66.50;;;;;;5077287;28;20407;-73
2021/11/03 13:01:37;;;;;;;9.75;4.55;;;15.80;67.30;;;;;;5077541;28;20027;-73
2021/11/03 13:04:15;;;;;;;10.63;4.97;;;15.60;67.90;;;;;;5076996;28;20020;-73
2021/11/03 13:07:12;;;;;;;6.68;3.17;;;15.40;68.90;;;;;;5077082;28;20360;-73
2021/11/03 13:09:42;;;;;;;5.50;2.67;;;15.30;69.70;;;;;;5062555;28;20096;-73